PWSweather.com
Personal Weather Stations
Station Observations
COONRAPIDS
Minneapolis, MN 55433

Minneapolis, MN 55433

Lat: 45.187721, Lon: -93.36828

Elevation: 898

Station Type: Davis Vantage Pro 2

High Low Average
Temperature 83.2°F28.4°C 64.1°F17.8°C 74.3°F23.5°C
Dew Point 64.7°F18.2°C 59.2°F15.1°C 61.8°F16.6°C
Winds 2.3 mph 3.7 kmh Calm Calm Calm WCalm W
Wind Gusts 4.6 mph7.4 kmh -- --
Humidity 87% 46% 66%
Pressure 30.10 in1019.3 mb 30.02 in1016.6 mb -
Precipitation 0.00 in0.0 mm - -
Hour Temp Dew Point Humidity Winds Wind Gusts Pressure Precip Precip Rate Daily Precip Total
12:00 AM 68.4°F20.2°C 59.8°F15.4°C 74% Calm Calm -- 30.09 in1019.0 mb - 0.00 in0.0 mm 0.00 in0.0 mm
12:10 AM 68.3°F20.2°C 60.1°F15.6°C 75% Calm Calm -- 30.08 in1018.6 mb - 0.00 in0.0 mm 0.00 in0.0 mm
12:20 AM 68.3°F20.2°C 59.7°F15.4°C 74% Calm Calm -- 30.09 in1019.0 mb - 0.00 in0.0 mm 0.00 in0.0 mm
12:30 AM 68.3°F20.2°C 59.7°F15.4°C 74% Calm Calm -- 30.09 in1019.0 mb - 0.00 in0.0 mm 0.00 in0.0 mm
12:40 AM 68.3°F20.2°C 59.7°F15.4°C 74% Calm Calm -- 30.08 in1018.6 mb - 0.00 in0.0 mm 0.00 in0.0 mm
12:50 AM 68.1°F20.1°C 59.5°F15.3°C 74% Calm Calm -- 30.09 in1019.0 mb - 0.00 in0.0 mm 0.00 in0.0 mm
01:00 AM 68.1°F20.1°C 59.5°F15.3°C 74% Calm Calm -- 30.09 in1019.0 mb - 0.00 in0.0 mm 0.00 in0.0 mm
01:10 AM 68.0°F20.0°C 59.8°F15.4°C 75% Calm Calm -- 30.09 in1019.0 mb - 0.00 in0.0 mm 0.00 in0.0 mm
01:20 AM 67.9°F19.9°C 59.7°F15.4°C 75% Calm Calm -- 30.09 in1019.0 mb - 0.00 in0.0 mm 0.00 in0.0 mm
01:30 AM 67.8°F19.9°C 59.6°F15.3°C 75% Calm Calm -- 30.09 in1019.0 mb - 0.00 in0.0 mm 0.00 in0.0 mm
01:40 AM 67.6°F19.8°C 59.8°F15.4°C 76% Calm Calm -- 30.09 in1019.0 mb - 0.00 in0.0 mm 0.00 in0.0 mm
01:50 AM 67.5°F19.7°C 59.7°F15.4°C 76% Calm Calm -- 30.09 in1019.0 mb - 0.00 in0.0 mm 0.00 in0.0 mm
02:00 AM 67.4°F19.7°C 59.9°F15.5°C 77% Calm Calm -- 30.09 in1019.0 mb - 0.00 in0.0 mm 0.00 in0.0 mm
02:10 AM 67.4°F19.7°C 59.9°F15.5°C 77% Calm Calm -- 30.09 in1019.0 mb - 0.00 in0.0 mm 0.00 in0.0 mm
02:20 AM 67.3°F19.6°C 60.2°F15.7°C 78% Calm Calm -- 30.09 in1019.0 mb - 0.00 in0.0 mm 0.00 in0.0 mm
02:30 AM 67.3°F19.6°C 60.2°F15.7°C 78% Calm Calm -- 30.09 in1019.0 mb - 0.00 in0.0 mm 0.00 in0.0 mm
02:40 AM 67.2°F19.6°C 60.1°F15.6°C 78% Calm Calm -- 30.08 in1018.6 mb - 0.00 in0.0 mm 0.00 in0.0 mm
02:50 AM 67.0°F19.4°C 60.3°F15.7°C 79% Calm Calm -- 30.08 in1018.6 mb - 0.00 in0.0 mm 0.00 in0.0 mm
03:00 AM 66.7°F19.3°C 60.0°F15.6°C 79% Calm Calm -- 30.07 in1018.3 mb - 0.00 in0.0 mm 0.00 in0.0 mm
03:10 AM 66.5°F19.2°C 60.1°F15.6°C 80% Calm Calm -- 30.07 in1018.3 mb - 0.00 in0.0 mm 0.00 in0.0 mm
03:20 AM 66.2°F19.0°C 60.2°F15.7°C 81% Calm Calm -- 30.07 in1018.3 mb - 0.00 in0.0 mm 0.00 in0.0 mm
03:30 AM 65.9°F18.8°C 59.9°F15.5°C 81% Calm Calm -- 30.07 in1018.3 mb - 0.00 in0.0 mm 0.00 in0.0 mm
03:40 AM 65.6°F18.7°C 60.0°F15.6°C 82% Calm Calm -- 30.08 in1018.6 mb - 0.00 in0.0 mm 0.00 in0.0 mm
03:50 AM 65.3°F18.5°C 59.7°F15.4°C 82% Calm Calm -- 30.07 in1018.3 mb - 0.00 in0.0 mm 0.00 in0.0 mm
04:00 AM 65.1°F18.4°C 59.8°F15.4°C 83% Calm Calm -- 30.07 in1018.3 mb - 0.00 in0.0 mm 0.00 in0.0 mm
04:10 AM 64.9°F18.3°C 59.6°F15.3°C 83% Calm Calm -- 30.07 in1018.3 mb - 0.00 in0.0 mm 0.00 in0.0 mm
04:20 AM 64.7°F18.2°C 59.4°F15.2°C 83% Calm Calm -- 30.07 in1018.3 mb - 0.00 in0.0 mm 0.00 in0.0 mm
04:30 AM 64.5°F18.1°C 59.6°F15.3°C 84% Calm Calm -- 30.07 in1018.3 mb - 0.00 in0.0 mm 0.00 in0.0 mm
04:40 AM 64.3°F17.9°C 59.4°F15.2°C 84% Calm Calm -- 30.07 in1018.3 mb - 0.00 in0.0 mm 0.00 in0.0 mm
04:50 AM 64.1°F17.8°C 59.2°F15.1°C 84% Calm Calm -- 30.07 in1018.3 mb - 0.00 in0.0 mm 0.00 in0.0 mm
05:00 AM 64.1°F17.8°C 59.5°F15.3°C 85% Calm Calm -- 30.07 in1018.3 mb - 0.00 in0.0 mm 0.00 in0.0 mm
05:10 AM 64.1°F17.8°C 59.5°F15.3°C 85% Calm Calm -- 30.07 in1018.3 mb - 0.00 in0.0 mm 0.00 in0.0 mm
05:20 AM 64.1°F17.8°C 59.5°F15.3°C 85% Calm Calm -- 30.07 in1018.3 mb - 0.00 in0.0 mm 0.00 in0.0 mm
05:30 AM 64.1°F17.8°C 59.5°F15.3°C 85% Calm Calm -- 30.07 in1018.3 mb - 0.00 in0.0 mm 0.00 in0.0 mm
05:40 AM 64.2°F17.9°C 59.9°F15.5°C 86% Calm Calm -- 30.08 in1018.6 mb - 0.00 in0.0 mm 0.00 in0.0 mm
05:50 AM 64.4°F18.0°C 60.1°F15.6°C 86% Calm Calm -- 30.08 in1018.6 mb - 0.00 in0.0 mm 0.00 in0.0 mm
06:00 AM 64.8°F18.2°C 60.5°F15.8°C 86% Calm Calm -- 30.08 in1018.6 mb - 0.00 in0.0 mm 0.00 in0.0 mm
06:10 AM 65.2°F18.4°C 60.9°F16.1°C 86% Calm Calm -- 30.08 in1018.6 mb - 0.00 in0.0 mm 0.00 in0.0 mm
06:20 AM 65.7°F18.7°C 61.7°F16.5°C 87% Calm Calm -- 30.09 in1019.0 mb - 0.00 in0.0 mm 0.00 in0.0 mm
06:30 AM 66.0°F18.9°C 62.0°F16.7°C 87% Calm Calm -- 30.09 in1019.0 mb - 0.00 in0.0 mm 0.00 in0.0 mm
06:40 AM 66.5°F19.2°C 62.2°F16.8°C 86% Calm Calm -- 30.09 in1019.0 mb - 0.00 in0.0 mm 0.00 in0.0 mm
06:50 AM 67.1°F19.5°C 62.7°F17.1°C 86% Calm Calm -- 30.09 in1019.0 mb - 0.00 in0.0 mm 0.00 in0.0 mm
07:00 AM 67.6°F19.8°C 62.9°F17.2°C 85% Calm Calm -- 30.09 in1019.0 mb - 0.00 in0.0 mm 0.00 in0.0 mm
07:10 AM 68.3°F20.2°C 63.3°F17.4°C 84% Calm Calm 1.2 mph1.9 kmh 30.09 in1019.0 mb - 0.00 in0.0 mm 0.00 in0.0 mm
07:20 AM 68.9°F20.5°C 63.1°F17.3°C 82% Calm Calm -- 30.09 in1019.0 mb - 0.00 in0.0 mm 0.00 in0.0 mm
07:30 AM 69.5°F20.8°C 63.4°F17.4°C 81% Calm Calm -- 30.09 in1019.0 mb - 0.00 in0.0 mm 0.00 in0.0 mm
07:40 AM 70.1°F21.2°C 63.3°F17.4°C 79% Calm Calm -- 30.10 in1019.3 mb - 0.00 in0.0 mm 0.00 in0.0 mm
07:50 AM 70.7°F21.5°C 63.2°F17.3°C 77% Calm Calm -- 30.10 in1019.3 mb - 0.00 in0.0 mm 0.00 in0.0 mm
08:00 AM 71.3°F21.8°C 63.7°F17.6°C 77% Calm Calm -- 30.10 in1019.3 mb - 0.00 in0.0 mm 0.00 in0.0 mm
08:10 AM 71.8°F22.1°C 63.8°F17.7°C 76% Calm Calm -- 30.10 in1019.3 mb - 0.00 in0.0 mm 0.00 in0.0 mm
08:20 AM 72.6°F22.6°C 64.2°F17.9°C 75% Calm Calm -- 30.09 in1019.0 mb - 0.00 in0.0 mm 0.00 in0.0 mm
08:30 AM 73.3°F22.9°C 64.5°F18.1°C 74% Calm Calm -- 30.09 in1019.0 mb - 0.00 in0.0 mm 0.00 in0.0 mm
08:40 AM 74.1°F23.4°C 64.5°F18.1°C 72% Calm Calm -- 30.09 in1019.0 mb - 0.00 in0.0 mm 0.00 in0.0 mm
08:50 AM 74.7°F23.7°C 64.7°F18.2°C 71% Calm Calm -- 30.10 in1019.3 mb - 0.00 in0.0 mm 0.00 in0.0 mm
09:00 AM 75.3°F24.1°C 64.4°F18.0°C 69% Calm Calm -- 30.09 in1019.0 mb - 0.00 in0.0 mm 0.00 in0.0 mm
09:10 AM 75.8°F24.3°C 63.6°F17.6°C 66% Calm Calm 1.2 mph1.9 kmh 30.09 in1019.0 mb - 0.00 in0.0 mm 0.00 in0.0 mm
09:20 AM 76.6°F24.8°C 64.4°F18.0°C 66% Calm Calm -- 30.09 in1019.0 mb - 0.00 in0.0 mm 0.00 in0.0 mm
09:30 AM 77.1°F25.1°C 64.0°F17.8°C 64% Calm Calm 2.3 mph3.7 kmh 30.09 in1019.0 mb - 0.00 in0.0 mm 0.00 in0.0 mm
09:40 AM 77.3°F25.2°C 64.2°F17.9°C 64% Calm Calm 1.2 mph1.9 kmh 30.09 in1019.0 mb - 0.00 in0.0 mm 0.00 in0.0 mm
09:50 AM 77.4°F25.2°C 63.8°F17.7°C 63% Calm Calm -- 30.09 in1019.0 mb - 0.00 in0.0 mm 0.00 in0.0 mm
10:00 AM 77.5°F25.3°C 63.9°F17.7°C 63% Calm Calm 1.2 mph1.9 kmh 30.09 in1019.0 mb - 0.00 in0.0 mm 0.00 in0.0 mm
10:10 AM 77.8°F25.4°C 63.7°F17.6°C 62% 2.3 mph WSW3.7 kmh WSW 4.6 mph7.4 kmh 30.09 in1019.0 mb - 0.00 in0.0 mm 0.00 in0.0 mm
10:20 AM 78.9°F26.1°C 63.8°F17.7°C 60% Calm Calm -- 30.09 in1019.0 mb - 0.00 in0.0 mm 0.00 in0.0 mm
10:30 AM 79.9°F26.6°C 63.8°F17.7°C 58% Calm Calm -- 30.09 in1019.0 mb - 0.00 in0.0 mm 0.00 in0.0 mm
10:40 AM 80.3°F26.8°C 63.2°F17.3°C 56% Calm Calm 1.2 mph1.9 kmh 30.09 in1019.0 mb - 0.00 in0.0 mm 0.00 in0.0 mm
10:50 AM 79.8°F26.6°C 63.2°F17.3°C 57% Calm Calm -- 30.09 in1019.0 mb - 0.00 in0.0 mm 0.00 in0.0 mm
11:00 AM 79.3°F26.3°C 63.2°F17.3°C 58% Calm Calm 1.2 mph1.9 kmh 30.09 in1019.0 mb - 0.00 in0.0 mm 0.00 in0.0 mm
11:10 AM 79.1°F26.2°C 63.5°F17.5°C 59% Calm Calm -- 30.09 in1019.0 mb - 0.00 in0.0 mm 0.00 in0.0 mm
11:20 AM 79.2°F26.2°C 63.7°F17.6°C 59% Calm Calm -- 30.08 in1018.6 mb - 0.00 in0.0 mm 0.00 in0.0 mm
11:30 AM 79.3°F26.3°C 64.2°F17.9°C 60% Calm Calm 1.2 mph1.9 kmh 30.08 in1018.6 mb - 0.00 in0.0 mm 0.00 in0.0 mm
11:40 AM 79.6°F26.4°C 63.0°F17.2°C 57% Calm Calm -- 30.08 in1018.6 mb - 0.00 in0.0 mm 0.00 in0.0 mm
11:50 AM 79.7°F26.5°C 63.1°F17.3°C 57% Calm Calm -- 30.08 in1018.6 mb - 0.00 in0.0 mm 0.00 in0.0 mm
12:00 PM 79.3°F26.3°C 63.7°F17.6°C 59% 1.2 mph WSW1.9 kmh WSW -- 30.08 in1018.6 mb - 0.00 in0.0 mm 0.00 in0.0 mm
12:10 PM 79.2°F26.2°C 63.2°F17.3°C 58% Calm Calm -- 30.08 in1018.6 mb - 0.00 in0.0 mm 0.00 in0.0 mm
12:20 PM 79.5°F26.4°C 63.9°F17.7°C 59% Calm Calm -- 30.08 in1018.6 mb - 0.00 in0.0 mm 0.00 in0.0 mm
12:30 PM 79.8°F26.6°C 64.7°F18.2°C 60% Calm Calm -- 30.08 in1018.6 mb - 0.00 in0.0 mm 0.00 in0.0 mm
12:40 PM 79.9°F26.6°C 63.3°F17.4°C 57% Calm Calm -- 30.07 in1018.3 mb - 0.00 in0.0 mm 0.00 in0.0 mm
12:50 PM 79.8°F26.6°C 63.7°F17.6°C 58% Calm Calm -- 30.07 in1018.3 mb - 0.00 in0.0 mm 0.00 in0.0 mm
01:00 PM 80.5°F26.9°C 63.9°F17.7°C 57% Calm Calm -- 30.07 in1018.3 mb - 0.00 in0.0 mm 0.00 in0.0 mm
01:10 PM 80.6°F27.0°C 63.5°F17.5°C 56% Calm Calm -- 30.07 in1018.3 mb - 0.00 in0.0 mm 0.00 in0.0 mm
01:20 PM 80.7°F27.1°C 62.5°F16.9°C 54% Calm Calm -- 30.06 in1017.9 mb - 0.00 in0.0 mm 0.00 in0.0 mm
01:30 PM 81.1°F27.3°C 63.9°F17.7°C 56% Calm Calm -- 30.06 in1017.9 mb - 0.00 in0.0 mm 0.00 in0.0 mm
01:40 PM 81.8°F27.7°C 61.9°F16.6°C 51% Calm Calm -- 30.06 in1017.9 mb - 0.00 in0.0 mm 0.00 in0.0 mm
01:50 PM 82.5°F28.1°C 60.8°F16.0°C 48% Calm Calm -- 30.06 in1017.9 mb - 0.00 in0.0 mm 0.00 in0.0 mm
02:00 PM 83.0°F28.3°C 61.9°F16.6°C 49% Calm Calm -- 30.06 in1017.9 mb - 0.00 in0.0 mm 0.00 in0.0 mm
02:10 PM 82.6°F28.1°C 61.5°F16.4°C 49% Calm Calm -- 30.06 in1017.9 mb - 0.00 in0.0 mm 0.00 in0.0 mm
02:20 PM 82.3°F27.9°C 61.2°F16.2°C 49% Calm Calm -- 30.06 in1017.9 mb - 0.00 in0.0 mm 0.00 in0.0 mm
02:30 PM 82.3°F27.9°C 62.3°F16.8°C 51% Calm Calm -- 30.05 in1017.6 mb - 0.00 in0.0 mm 0.00 in0.0 mm
02:40 PM 82.5°F28.1°C 62.5°F16.9°C 51% Calm Calm -- 30.05 in1017.6 mb - 0.00 in0.0 mm 0.00 in0.0 mm
02:50 PM 82.2°F27.9°C 59.4°F15.2°C 46% Calm Calm -- 30.05 in1017.6 mb - 0.00 in0.0 mm 0.00 in0.0 mm
03:00 PM 82.4°F28.0°C 61.9°F16.6°C 50% Calm Calm -- 30.05 in1017.6 mb - 0.00 in0.0 mm 0.00 in0.0 mm
03:10 PM 82.6°F28.1°C 62.0°F16.7°C 50% Calm Calm -- 30.05 in1017.6 mb - 0.00 in0.0 mm 0.00 in0.0 mm
03:20 PM 82.3°F27.9°C 61.8°F16.6°C 50% Calm Calm -- 30.04 in1017.3 mb - 0.00 in0.0 mm 0.00 in0.0 mm
03:30 PM 82.3°F27.9°C 61.8°F16.6°C 50% Calm Calm -- 30.04 in1017.3 mb - 0.00 in0.0 mm 0.00 in0.0 mm
03:40 PM 82.4°F28.0°C 61.9°F16.6°C 50% Calm Calm -- 30.04 in1017.3 mb - 0.00 in0.0 mm 0.00 in0.0 mm
03:50 PM 82.3°F27.9°C 62.4°F16.9°C 51% Calm Calm -- 30.04 in1017.3 mb - 0.00 in0.0 mm 0.00 in0.0 mm
04:00 PM 82.5°F28.1°C 63.1°F17.3°C 52% Calm Calm -- 30.04 in1017.3 mb - 0.00 in0.0 mm 0.00 in0.0 mm
04:10 PM 83.2°F28.4°C 62.1°F16.7°C 49% Calm Calm -- 30.04 in1017.3 mb - 0.00 in0.0 mm 0.00 in0.0 mm
04:20 PM 82.8°F28.2°C 61.7°F16.5°C 49% Calm Calm -- 30.03 in1016.9 mb - 0.00 in0.0 mm 0.00 in0.0 mm
04:30 PM 82.9°F28.3°C 62.4°F16.9°C 50% Calm Calm -- 30.03 in1016.9 mb - 0.00 in0.0 mm 0.00 in0.0 mm
04:40 PM 82.9°F28.3°C 61.8°F16.6°C 49% Calm Calm -- 30.03 in1016.9 mb - 0.00 in0.0 mm 0.00 in0.0 mm
04:50 PM 82.4°F28.0°C 63.6°F17.6°C 53% Calm Calm -- 30.03 in1016.9 mb - 0.00 in0.0 mm 0.00 in0.0 mm
05:00 PM 81.9°F27.7°C 63.1°F17.3°C 53% Calm Calm -- 30.03 in1016.9 mb - 0.00 in0.0 mm 0.00 in0.0 mm
05:10 PM 81.8°F27.7°C 62.5°F16.9°C 52% Calm Calm -- 30.04 in1017.3 mb - 0.00 in0.0 mm 0.00 in0.0 mm
05:20 PM 81.3°F27.4°C 62.0°F16.7°C 52% Calm Calm -- 30.04 in1017.3 mb - 0.00 in0.0 mm 0.00 in0.0 mm
05:30 PM 81.6°F27.6°C 61.7°F16.5°C 51% 1.2 mph W1.9 kmh W -- 30.03 in1016.9 mb - 0.00 in0.0 mm 0.00 in0.0 mm
05:40 PM 81.2°F27.3°C 60.8°F16.0°C 50% Calm Calm -- 30.03 in1016.9 mb - 0.00 in0.0 mm 0.00 in0.0 mm
05:50 PM 80.7°F27.1°C 60.9°F16.1°C 51% Calm Calm -- 30.03 in1016.9 mb - 0.00 in0.0 mm 0.00 in0.0 mm
06:00 PM 80.3°F26.8°C 60.0°F15.6°C 50% Calm Calm -- 30.03 in1016.9 mb - 0.00 in0.0 mm 0.00 in0.0 mm
06:10 PM 80.1°F26.7°C 60.3°F15.7°C 51% Calm Calm -- 30.03 in1016.9 mb - 0.00 in0.0 mm 0.00 in0.0 mm
06:20 PM 80.0°F26.7°C 60.2°F15.7°C 51% Calm Calm -- 30.03 in1016.9 mb - 0.00 in0.0 mm 0.00 in0.0 mm
06:30 PM 79.8°F26.6°C 60.1°F15.6°C 51% Calm Calm -- 30.03 in1016.9 mb - 0.00 in0.0 mm 0.00 in0.0 mm
06:40 PM 79.6°F26.4°C 59.9°F15.5°C 51% Calm Calm -- 30.03 in1016.9 mb - 0.00 in0.0 mm 0.00 in0.0 mm
06:50 PM 79.3°F26.3°C 59.6°F15.3°C 51% Calm Calm 1.2 mph1.9 kmh 30.03 in1016.9 mb - 0.00 in0.0 mm 0.00 in0.0 mm
07:00 PM 79.1°F26.2°C 59.4°F15.2°C 51% Calm Calm -- 30.02 in1016.6 mb - 0.00 in0.0 mm 0.00 in0.0 mm
07:10 PM 78.9°F26.1°C 59.2°F15.1°C 51% Calm Calm -- 30.03 in1016.9 mb - 0.00 in0.0 mm 0.00 in0.0 mm
07:20 PM 78.5°F25.8°C 59.9°F15.5°C 53% Calm Calm -- 30.03 in1016.9 mb - 0.00 in0.0 mm 0.00 in0.0 mm
07:30 PM 78.0°F25.6°C 60.0°F15.6°C 54% Calm Calm -- 30.03 in1016.9 mb - 0.00 in0.0 mm 0.00 in0.0 mm
07:40 PM 77.4°F25.2°C 60.0°F15.6°C 55% Calm Calm -- 30.03 in1016.9 mb - 0.00 in0.0 mm 0.00 in0.0 mm
07:50 PM 76.9°F24.9°C 60.5°F15.8°C 57% Calm Calm -- 30.03 in1016.9 mb - 0.00 in0.0 mm 0.00 in0.0 mm
08:00 PM 76.3°F24.6°C 60.9°F16.1°C 59% Calm Calm -- 30.03 in1016.9 mb - 0.00 in0.0 mm 0.00 in0.0 mm
08:10 PM 75.8°F24.3°C 60.9°F16.1°C 60% Calm Calm -- 30.04 in1017.3 mb - 0.00 in0.0 mm 0.00 in0.0 mm
08:20 PM 75.4°F24.1°C 61.5°F16.4°C 62% Calm Calm -- 30.04 in1017.3 mb - 0.00 in0.0 mm 0.00 in0.0 mm
08:30 PM 75.0°F23.9°C 61.5°F16.4°C 63% Calm Calm -- 30.04 in1017.3 mb - 0.00 in0.0 mm 0.00 in0.0 mm
08:40 PM 74.6°F23.7°C 61.6°F16.4°C 64% Calm Calm -- 30.04 in1017.3 mb - 0.00 in0.0 mm 0.00 in0.0 mm
08:50 PM 74.3°F23.5°C 61.3°F16.3°C 64% Calm Calm -- 30.04 in1017.3 mb - 0.00 in0.0 mm 0.00 in0.0 mm
09:00 PM 74.0°F23.3°C 61.9°F16.6°C 66% Calm Calm -- 30.04 in1017.3 mb - 0.00 in0.0 mm 0.00 in0.0 mm
09:10 PM 74.0°F23.3°C 61.9°F16.6°C 66% Calm Calm -- 30.04 in1017.3 mb - 0.00 in0.0 mm 0.00 in0.0 mm
09:20 PM 73.9°F23.3°C 61.8°F16.6°C 66% Calm Calm -- 30.04 in1017.3 mb - 0.00 in0.0 mm 0.00 in0.0 mm
09:30 PM 73.7°F23.2°C 62.1°F16.7°C 67% Calm Calm -- 30.04 in1017.3 mb - 0.00 in0.0 mm 0.00 in0.0 mm
09:40 PM 73.5°F23.1°C 62.3°F16.8°C 68% Calm Calm -- 30.04 in1017.3 mb - 0.00 in0.0 mm 0.00 in0.0 mm
09:50 PM 73.3°F22.9°C 62.9°F17.2°C 70% Calm Calm -- 30.04 in1017.3 mb - 0.00 in0.0 mm 0.00 in0.0 mm
10:00 PM 73.2°F22.9°C 63.2°F17.3°C 71% Calm Calm -- 30.04 in1017.3 mb - 0.00 in0.0 mm 0.00 in0.0 mm
10:10 PM 73.0°F22.8°C 63.4°F17.4°C 72% Calm Calm -- 30.05 in1017.6 mb - 0.00 in0.0 mm 0.00 in0.0 mm
10:20 PM 72.8°F22.7°C 63.2°F17.3°C 72% Calm Calm -- 30.05 in1017.6 mb - 0.00 in0.0 mm 0.00 in0.0 mm
10:30 PM 72.6°F22.6°C 63.1°F17.3°C 72% Calm Calm -- 30.05 in1017.6 mb - 0.00 in0.0 mm 0.00 in0.0 mm
10:40 PM 72.5°F22.5°C 63.4°F17.4°C 73% Calm Calm -- 30.05 in1017.6 mb - 0.00 in0.0 mm 0.00 in0.0 mm
10:50 PM 72.4°F22.4°C 63.3°F17.4°C 73% Calm Calm -- 30.05 in1017.6 mb - 0.00 in0.0 mm 0.00 in0.0 mm
11:00 PM 72.4°F22.4°C 63.6°F17.6°C 74% Calm Calm -- 30.05 in1017.6 mb - 0.00 in0.0 mm 0.00 in0.0 mm
11:10 PM 72.2°F22.3°C 63.8°F17.7°C 75% Calm Calm -- 30.05 in1017.6 mb - 0.00 in0.0 mm 0.00 in0.0 mm
11:20 PM 72.0°F22.2°C 63.6°F17.6°C 75% Calm Calm -- 30.05 in1017.6 mb - 0.00 in0.0 mm 0.00 in0.0 mm
11:30 PM 71.9°F22.2°C 63.5°F17.5°C 75% Calm Calm -- 30.05 in1017.6 mb - 0.00 in0.0 mm 0.00 in0.0 mm
11:40 PM 71.7°F22.1°C 63.7°F17.6°C 76% Calm Calm -- 30.05 in1017.6 mb - 0.00 in0.0 mm 0.00 in0.0 mm
11:50 PM 71.6°F22.0°C 63.6°F17.6°C 76% Calm Calm -- 30.05 in1017.6 mb - 0.00 in0.0 mm 0.00 in0.0 mm